createdAt,value
2023-01-19T00:01:59.489Z,61.25
2023-01-19T00:04:30.109Z,61.50
2023-01-19T00:07:02.693Z,61.46
2023-01-19T00:09:34.374Z,61.24
2023-01-19T00:12:05.849Z,61.15
2023-01-19T00:14:36.245Z,61.52
2023-01-19T00:17:07.167Z,61.11
2023-01-19T00:19:37.499Z,61.15
2023-01-19T00:22:08.658Z,60.92
2023-01-19T00:24:39.477Z,61.19
2023-01-19T00:27:10.254Z,60.96
2023-01-19T00:29:41.177Z,60.29
2023-01-19T00:32:13.861Z,60.68
2023-01-19T00:34:50.252Z,60.17
2023-01-19T00:37:21.749Z,60.26
2023-01-19T00:39:54.951Z,60.48
2023-01-19T00:42:44.001Z,60.33
2023-01-19T00:45:17.742Z,60.01
2023-01-19T00:47:50.111Z,60.16
2023-01-19T00:50:20.716Z,59.63
2023-01-19T00:52:51.912Z,59.46
2023-01-19T00:55:23.118Z,59.42
2023-01-19T00:57:54.328Z,59.66
2023-01-19T01:00:25.836Z,59.37
2023-01-19T01:02:57.791Z,59.12
2023-01-19T01:05:28.237Z,58.50
2023-01-19T01:07:58.527Z,58.09
2023-01-19T01:10:30.622Z,58.50
2023-01-19T01:13:21.081Z,58.02
2023-01-19T01:15:53.399Z,58.32
2023-01-19T01:18:24.696Z,58.29
2023-01-19T01:21:02.911Z,58.23
2023-01-19T01:23:33.786Z,58.22
2023-01-19T01:26:04.469Z,58.10
2023-01-19T01:28:34.790Z,57.83
2023-01-19T01:31:05.550Z,57.59
2023-01-19T01:33:40.690Z,57.91
2023-01-19T01:36:13.351Z,58.14
2023-01-19T01:38:47.168Z,57.80
2023-01-19T01:41:17.906Z,57.70
2023-01-19T01:44:02.691Z,57.88
2023-01-19T01:46:33.411Z,57.36
2023-01-19T01:49:24.120Z,57.64
2023-01-19T01:51:55.441Z,57.24
2023-01-19T01:54:31.343Z,56.50
2023-01-19T01:57:05.337Z,56.34
2023-01-19T01:59:42.016Z,56.25
2023-01-19T02:02:44.554Z,56.48
2023-01-19T02:05:34.443Z,55.94
2023-01-19T02:08:47.022Z,55.88
2023-01-19T02:11:36.799Z,55.85
2023-01-19T02:14:07.813Z,55.58
2023-01-19T02:16:39.199Z,55.38
2023-01-19T02:19:14.529Z,55.29
2023-01-19T02:22:15.893Z,55.24
2023-01-19T02:24:46.445Z,54.77
2023-01-19T02:27:18.720Z,55.43
2023-01-19T02:29:49.520Z,55.06
2023-01-19T02:32:19.919Z,54.76
2023-01-19T02:34:50.897Z,54.68
2023-01-19T02:37:22.090Z,54.54
2023-01-19T02:39:58.619Z,54.87
2023-01-19T02:42:47.419Z,54.96
2023-01-19T02:45:24.298Z,54.75
2023-01-19T02:47:54.888Z,54.39
2023-01-19T02:50:38.272Z,54.71
2023-01-19T02:53:09.182Z,54.14
2023-01-19T02:55:40.009Z,54.34
2023-01-19T02:58:21.891Z,54.29
2023-01-19T03:00:58.254Z,53.86
2023-01-19T03:03:33.320Z,54.45
2023-01-19T03:06:24.233Z,54.24
2023-01-19T03:09:13.807Z,54.70
2023-01-19T03:11:48.636Z,54.48
2023-01-19T03:14:24.587Z,54.42
2023-01-19T03:16:59.206Z,53.88
2023-01-19T03:19:43.910Z,54.12
2023-01-19T03:22:24.220Z,54.25
2023-01-19T03:25:00.712Z,53.92
2023-01-19T03:27:42.162Z,54.25
2023-01-19T03:30:26.088Z,54.37
2023-01-19T03:33:02.724Z,54.17
2023-01-19T03:35:36.314Z,54.03
2023-01-19T03:38:09.667Z,54.41
2023-01-19T03:40:41.081Z,53.89
2023-01-19T03:43:12.028Z,53.57
2023-01-19T03:45:44.790Z,53.49
2023-01-19T03:48:16.041Z,53.46
2023-01-19T03:50:46.936Z,53.62
2023-01-19T03:53:20.581Z,53.59
2023-01-19T03:55:58.844Z,53.58
2023-01-19T03:58:29.613Z,53.61
2023-01-19T04:01:02.852Z,54.22
2023-01-19T04:03:34.517Z,54.37
2023-01-19T04:06:05.037Z,53.77
2023-01-19T04:08:36.153Z,54.05
2023-01-19T04:11:06.806Z,53.54
2023-01-19T04:13:37.812Z,53.21
2023-01-19T04:16:08.805Z,52.76
2023-01-19T04:18:39.728Z,52.76
2023-01-19T04:21:10.616Z,52.45
2023-01-19T04:23:41.326Z,52.67
2023-01-19T04:26:14.863Z,52.84
2023-01-19T04:28:45.980Z,52.47
2023-01-19T04:31:16.661Z,52.76
2023-01-19T04:33:47.257Z,52.51
2023-01-19T04:36:18.394Z,52.18
2023-01-19T04:38:49.595Z,52.00
2023-01-19T04:41:20.387Z,51.64
2023-01-19T04:43:51.228Z,51.99
2023-01-19T04:46:22.230Z,51.51
2023-01-19T04:48:53.600Z,51.69
2023-01-19T04:51:24.191Z,51.48
2023-01-19T04:53:54.883Z,51.84
2023-01-19T04:56:25.319Z,51.62
2023-01-19T04:58:56.480Z,51.90
2023-01-19T05:01:26.969Z,51.78
2023-01-19T05:04:00.737Z,52.07
2023-01-19T05:06:31.960Z,51.71
2023-01-19T05:09:02.900Z,52.10
2023-01-19T05:11:33.532Z,52.20
2023-01-19T05:14:05.980Z,52.21
2023-01-19T05:16:37.662Z,52.05
2023-01-19T05:19:08.123Z,52.05
2023-01-19T05:21:38.548Z,51.78
2023-01-19T05:24:09.388Z,51.86
2023-01-19T05:26:48.760Z,51.77
2023-01-19T05:29:19.221Z,51.66
2023-01-19T05:31:49.928Z,51.53
2023-01-19T05:34:20.468Z,50.94
2023-01-19T05:36:52.448Z,51.22
2023-01-19T05:39:23.162Z,51.16
2023-01-19T05:41:53.619Z,50.94
2023-01-19T05:44:24.580Z,51.00
2023-01-19T05:46:55.048Z,50.48
2023-01-19T05:49:26.016Z,50.48
2023-01-19T05:51:57.022Z,50.56
2023-01-19T05:54:27.636Z,50.47
2023-01-19T05:56:58.678Z,50.61
2023-01-19T05:59:29.186Z,50.56
2023-01-19T06:02:01.015Z,50.50
2023-01-19T06:04:31.594Z,50.41
2023-01-19T06:07:03.216Z,50.27
2023-01-19T06:09:34.944Z,50.29
2023-01-19T06:12:06.053Z,50.30
2023-01-19T06:14:37.955Z,50.29
2023-01-19T06:17:09.715Z,50.65
2023-01-19T06:19:40.218Z,49.86
2023-01-19T06:22:10.945Z,50.15
2023-01-19T06:24:42.396Z,49.72
2023-01-19T06:27:12.748Z,49.23
2023-01-19T06:29:43.697Z,49.15
2023-01-19T06:32:14.167Z,49.09
2023-01-19T06:34:45.123Z,49.03
2023-01-19T06:37:17.668Z,49.53
2023-01-19T06:39:47.904Z,49.58
2023-01-19T06:42:18.365Z,49.71
2023-01-19T06:44:49.143Z,49.87
2023-01-19T06:47:19.966Z,49.17
2023-01-19T06:49:51.372Z,48.72
2023-01-19T06:52:21.946Z,48.80
2023-01-19T06:54:54.632Z,48.28
2023-01-19T06:57:27.265Z,48.78
2023-01-19T06:59:59.794Z,48.61
2023-01-19T07:02:31.112Z,48.32
2023-01-19T07:05:04.122Z,48.04
2023-01-19T07:07:34.747Z,48.61
2023-01-19T07:10:05.177Z,48.61
2023-01-19T07:12:36.363Z,48.03
2023-01-19T07:15:08.536Z,48.62
2023-01-19T07:17:39.882Z,48.45
2023-01-19T07:20:15.472Z,48.70
2023-01-19T07:22:49.940Z,48.51
2023-01-19T07:25:22.120Z,48.68
2023-01-19T07:27:53.022Z,48.86
2023-01-19T07:30:23.797Z,48.17
2023-01-19T07:32:58.805Z,48.84
2023-01-19T07:35:30.630Z,48.56
2023-01-19T07:38:07.153Z,48.27
2023-01-19T07:40:37.770Z,48.06
2023-01-19T07:43:08.606Z,47.74
2023-01-19T07:45:39.405Z,47.43
2023-01-19T07:48:12.003Z,47.85
2023-01-19T07:50:43.248Z,47.76
2023-01-19T07:53:14.301Z,47.53
2023-01-19T07:55:45.329Z,47.64
2023-01-19T07:58:16.157Z,47.05
2023-01-19T08:00:47.065Z,47.19
2023-01-19T08:03:18.789Z,47.30
2023-01-19T08:05:53.870Z,47.51
2023-01-19T08:08:24.596Z,47.20
2023-01-19T08:10:55.537Z,47.17
2023-01-19T08:13:27.268Z,47.03
2023-01-19T08:15:58.644Z,46.89
2023-01-19T08:18:29.342Z,46.95
2023-01-19T08:21:03.112Z,47.42
2023-01-19T08:23:33.422Z,46.93
2023-01-19T08:26:04.541Z,47.30
2023-01-19T08:28:35.501Z,46.89
2023-01-19T08:31:19.232Z,47.03
2023-01-19T08:33:51.648Z,46.57
2023-01-19T08:36:23.733Z,46.94
2023-01-19T08:38:54.626Z,46.51
2023-01-19T08:41:25.758Z,46.66
2023-01-19T08:43:56.392Z,46.63
2023-01-19T08:46:28.165Z,46.60
2023-01-19T08:48:58.759Z,47.04
2023-01-19T08:51:29.426Z,47.18
2023-01-19T08:53:59.998Z,46.75
2023-01-19T08:56:33.309Z,46.96
2023-01-19T08:59:09.914Z,46.60
2023-01-19T09:01:42.388Z,46.64
2023-01-19T09:04:15.915Z,46.91
2023-01-19T09:06:46.696Z,46.78
2023-01-19T09:09:17.430Z,46.77
2023-01-19T09:11:48.343Z,46.86
2023-01-19T09:14:20.477Z,47.01
2023-01-19T09:16:54.003Z,46.93
2023-01-19T09:19:24.253Z,47.03
2023-01-19T09:21:55.894Z,47.16
2023-01-19T09:24:26.722Z,47.17
2023-01-19T09:26:59.459Z,47.13
2023-01-19T09:29:32.966Z,47.25
2023-01-19T09:32:04.674Z,47.29
2023-01-19T09:34:35.160Z,47.94
2023-01-19T09:37:05.819Z,48.42
2023-01-19T09:39:36.456Z,48.57
2023-01-19T09:42:21.878Z,48.54
2023-01-19T09:44:55.861Z,48.60
2023-01-19T09:47:29.891Z,49.24
2023-01-19T09:50:28.358Z,50.07
2023-01-19T09:53:03.843Z,49.00
2023-01-19T09:55:34.428Z,49.30
2023-01-19T09:58:09.700Z,48.57
2023-01-19T10:00:43.586Z,49.05
2023-01-19T10:03:17.702Z,49.44
2023-01-19T10:06:04.437Z,49.23
2023-01-19T10:08:41.312Z,49.97
2023-01-19T10:11:52.672Z,49.72
2023-01-19T10:14:33.191Z,50.13
2023-01-19T10:17:22.070Z,49.44
2023-01-19T10:19:55.361Z,49.40
2023-01-19T10:22:28.998Z,49.41
2023-01-19T10:25:08.732Z,49.97
2023-01-19T10:27:39.777Z,49.90
2023-01-19T10:30:11.685Z,50.24
2023-01-19T10:32:42.273Z,50.25
2023-01-19T10:35:36.070Z,50.67
2023-01-19T10:38:07.664Z,50.52
2023-01-19T10:40:54.687Z,50.27
2023-01-19T10:43:46.560Z,50.40
2023-01-19T10:46:24.319Z,50.90
2023-01-19T10:48:55.797Z,50.64
2023-01-19T10:51:26.466Z,50.51
2023-01-19T10:54:05.229Z,50.75
2023-01-19T10:56:40.132Z,50.69
2023-01-19T10:59:32.949Z,51.18
2023-01-19T11:02:28.535Z,50.65
2023-01-19T11:05:23.428Z,50.20
2023-01-19T11:07:56.512Z,50.86
2023-01-19T11:10:30.373Z,51.38
2023-01-19T11:13:16.677Z,51.16
2023-01-19T11:15:49.895Z,51.01
2023-01-19T11:18:37.803Z,51.32
2023-01-19T11:21:10.907Z,51.40
2023-01-19T11:23:51.987Z,51.71
2023-01-19T11:26:43.873Z,51.83
2023-01-19T11:29:22.242Z,52.56
2023-01-19T11:31:54.314Z,51.62
2023-01-19T11:34:33.785Z,51.54
2023-01-19T11:37:31.582Z,52.51
2023-01-19T11:40:03.845Z,51.62
2023-01-19T11:42:37.574Z,51.91
2023-01-19T11:45:19.395Z,52.65
2023-01-19T11:47:52.784Z,51.77
2023-01-19T11:50:28.867Z,52.09
2023-01-19T11:53:18.648Z,52.39
2023-01-19T11:55:58.588Z,52.24
2023-01-19T11:58:29.155Z,52.11
2023-01-19T12:01:08.827Z,52.45
2023-01-19T12:04:05.419Z,52.68
2023-01-19T12:06:40.424Z,51.99
2023-01-19T12:09:22.916Z,52.16
2023-01-19T12:12:05.088Z,52.46
2023-01-19T12:14:41.827Z,51.92
2023-01-19T12:17:21.471Z,52.13
2023-01-19T12:19:55.992Z,52.49
2023-01-19T12:22:29.911Z,52.66
2023-01-19T12:25:26.876Z,53.16
2023-01-19T12:27:58.028Z,52.86
2023-01-19T12:30:30.672Z,52.89
2023-01-19T12:33:34.288Z,52.96
2023-01-19T12:36:07.462Z,53.14
2023-01-19T12:38:51.352Z,53.19
2023-01-19T12:41:48.637Z,52.72
2023-01-19T12:44:24.211Z,53.03
2023-01-19T12:46:56.096Z,53.11
2023-01-19T12:49:40.252Z,53.22
2023-01-19T12:52:22.244Z,53.65
2023-01-19T12:55:21.899Z,53.53
2023-01-19T12:57:56.883Z,53.66
2023-01-19T13:00:27.564Z,53.92
2023-01-19T13:03:01.193Z,53.88
2023-01-19T13:05:41.077Z,54.07
2023-01-19T13:08:14.823Z,53.92
2023-01-19T13:11:03.575Z,54.15
2023-01-19T13:13:36.894Z,54.09
2023-01-19T13:16:20.739Z,54.06
2023-01-19T13:19:07.499Z,54.59
2023-01-19T13:21:48.515Z,54.62
2023-01-19T13:24:25.618Z,54.27
2023-01-19T13:26:59.781Z,54.88
2023-01-19T13:29:36.233Z,54.84
2023-01-19T13:32:18.579Z,54.85
2023-01-19T13:34:53.243Z,54.89
2023-01-19T13:37:37.172Z,54.67
2023-01-19T13:40:09.105Z,54.66
2023-01-19T13:42:42.265Z,55.01
2023-01-19T13:45:19.680Z,54.68
2023-01-19T13:47:51.859Z,54.65
2023-01-19T13:50:24.044Z,54.84
2023-01-19T13:52:56.580Z,54.81
2023-01-19T13:55:29.352Z,54.78
2023-01-19T13:58:00.151Z,55.12
2023-01-19T14:00:31.987Z,54.69
2023-01-19T14:03:31.988Z,55.24
2023-01-19T14:06:02.888Z,55.03
2023-01-19T14:08:34.855Z,55.23
2023-01-19T14:11:06.042Z,55.06
2023-01-19T14:13:44.162Z,55.50
2023-01-19T14:16:18.889Z,56.02
2023-01-19T14:19:01.637Z,55.93
2023-01-19T14:21:45.384Z,55.44
2023-01-19T14:24:24.057Z,55.95
2023-01-19T14:26:57.181Z,55.99
2023-01-19T14:29:31.757Z,55.93
2023-01-19T14:32:21.905Z,56.07
2023-01-19T14:35:05.200Z,55.97
2023-01-19T14:37:39.534Z,55.92
2023-01-19T14:40:14.708Z,56.18
2023-01-19T14:42:49.543Z,56.54
2023-01-19T14:45:48.304Z,56.19
2023-01-19T14:48:21.385Z,56.62
2023-01-19T14:51:02.703Z,56.36
2023-01-19T14:53:38.099Z,56.62
2023-01-19T14:56:09.023Z,56.37
2023-01-19T14:58:39.603Z,56.23
2023-01-19T15:01:10.884Z,56.27
2023-01-19T15:03:45.603Z,56.75
2023-01-19T15:06:19.697Z,56.68
2023-01-19T15:08:51.048Z,57.05
2023-01-19T15:11:22.162Z,56.68
2023-01-19T15:13:53.089Z,56.74
2023-01-19T15:16:26.637Z,56.79
2023-01-19T15:18:58.195Z,56.92
2023-01-19T15:21:28.458Z,57.02
2023-01-19T15:24:01.376Z,57.39
2023-01-19T15:26:32.001Z,57.49
2023-01-19T15:29:02.748Z,57.57
2023-01-19T15:31:33.298Z,57.32
2023-01-19T15:34:03.600Z,57.75
2023-01-19T15:36:34.517Z,57.59
2023-01-19T15:39:05.741Z,57.49
2023-01-19T15:41:36.544Z,57.93
2023-01-19T15:44:09.474Z,57.98
2023-01-19T15:46:40.066Z,58.29
2023-01-19T15:49:10.830Z,58.34
2023-01-19T15:51:44.444Z,58.40
2023-01-19T15:54:16.166Z,58.44
2023-01-19T15:56:46.475Z,58.63
2023-01-19T15:59:17.472Z,58.09
2023-01-19T16:01:48.165Z,58.21
2023-01-19T16:04:18.714Z,58.73
2023-01-19T16:06:57.792Z,58.92
2023-01-19T16:09:28.576Z,58.75
2023-01-19T16:12:01.238Z,59.03
2023-01-19T16:14:32.327Z,58.68
2023-01-19T16:17:02.856Z,58.72
2023-01-19T16:19:33.102Z,59.16
2023-01-19T16:22:04.200Z,58.65
2023-01-19T16:24:34.821Z,58.59
2023-01-19T16:27:05.811Z,58.93
2023-01-19T16:29:37.061Z,58.89
2023-01-19T16:32:07.830Z,59.34
2023-01-19T16:34:39.281Z,58.89
2023-01-19T16:37:10.520Z,59.07
2023-01-19T16:39:40.862Z,59.16
2023-01-19T16:42:11.205Z,59.54
2023-01-19T16:44:41.779Z,59.39
2023-01-19T16:47:12.691Z,59.89
2023-01-19T16:49:43.633Z,59.81
2023-01-19T16:52:14.113Z,59.79
2023-01-19T16:54:45.583Z,59.95
2023-01-19T16:57:15.925Z,59.71
2023-01-19T16:59:46.547Z,59.83
2023-01-19T17:02:17.801Z,59.84
2023-01-19T17:04:49.161Z,59.97
2023-01-19T17:07:30.595Z,59.99
2023-01-19T17:10:01.040Z,60.06
2023-01-19T17:12:32.387Z,60.54
2023-01-19T17:15:02.894Z,60.58
2023-01-19T17:17:35.848Z,60.59
2023-01-19T17:20:07.093Z,60.59
2023-01-19T17:22:37.744Z,60.66
2023-01-19T17:25:08.886Z,60.72
2023-01-19T17:27:39.140Z,60.25
2023-01-19T17:30:10.697Z,60.55
2023-01-19T17:32:43.555Z,61.06
2023-01-19T17:35:13.842Z,60.86
2023-01-19T17:37:44.482Z,60.96
2023-01-19T17:40:15.000Z,60.97
2023-01-19T17:42:45.364Z,60.77
2023-01-19T17:45:15.965Z,60.86
2023-01-19T17:47:46.264Z,60.89
2023-01-19T17:50:20.384Z,61.29
2023-01-19T17:52:50.741Z,61.02
2023-01-19T17:55:20.877Z,61.16
2023-01-19T17:57:51.486Z,61.38
2023-01-19T18:00:22.159Z,61.13
2023-01-19T18:02:53.693Z,61.15
2023-01-19T18:05:24.724Z,61.20
2023-01-19T18:07:54.998Z,61.32
2023-01-19T18:10:25.153Z,61.09
2023-01-19T18:12:55.453Z,61.44
2023-01-19T18:15:25.700Z,61.35
2023-01-19T18:17:56.008Z,61.84
2023-01-19T18:20:26.848Z,61.75
2023-01-19T18:22:57.157Z,61.83
2023-01-19T18:25:27.771Z,61.80
2023-01-19T18:27:58.304Z,62.22
2023-01-19T18:30:28.866Z,61.76
2023-01-19T18:32:59.133Z,61.67
2023-01-19T18:35:30.420Z,61.98
2023-01-19T18:38:00.996Z,62.24
2023-01-19T18:40:31.534Z,61.81
2023-01-19T18:43:02.414Z,62.08
2023-01-19T18:45:32.891Z,62.34
2023-01-19T18:48:03.369Z,62.07
2023-01-19T18:50:34.374Z,62.30
2023-01-19T18:53:05.397Z,62.35
2023-01-19T18:55:37.290Z,62.62
2023-01-19T18:58:08.232Z,62.69
2023-01-19T19:00:38.885Z,62.79
2023-01-19T19:03:11.332Z,62.68
2023-01-19T19:05:42.073Z,62.40
2023-01-19T19:08:12.586Z,62.92
2023-01-19T19:10:45.872Z,62.88
2023-01-19T19:13:18.662Z,62.97
2023-01-19T19:15:49.303Z,62.88
2023-01-19T19:18:20.084Z,62.77
2023-01-19T19:20:51.170Z,62.89
2023-01-19T19:23:21.435Z,62.57
2023-01-19T19:25:52.545Z,63.04
2023-01-19T19:28:23.051Z,62.92
2023-01-19T19:31:04.613Z,62.67
2023-01-19T19:33:38.081Z,62.64
2023-01-19T19:36:09.694Z,62.90
2023-01-19T19:38:45.812Z,62.89
2023-01-19T19:41:19.710Z,63.11
2023-01-19T19:43:50.284Z,63.12
2023-01-19T19:46:23.816Z,63.02
2023-01-19T19:48:57.474Z,63.25
2023-01-19T19:51:29.446Z,62.72
2023-01-19T19:54:01.438Z,62.85
2023-01-19T19:56:33.293Z,62.33
2023-01-19T19:59:03.972Z,62.57
2023-01-19T20:01:34.721Z,62.32
2023-01-19T20:04:10.397Z,62.58
2023-01-19T20:06:45.340Z,62.53
2023-01-19T20:09:17.380Z,62.21
2023-01-19T20:11:49.900Z,62.46
2023-01-19T20:14:20.314Z,62.52
2023-01-19T20:16:51.207Z,62.53
2023-01-19T20:19:22.303Z,62.18
2023-01-19T20:21:53.188Z,62.12
2023-01-19T20:24:23.936Z,62.46
2023-01-19T20:26:55.674Z,62.19
2023-01-19T20:29:26.691Z,62.35
2023-01-19T20:31:57.701Z,62.18
2023-01-19T20:34:33.521Z,61.84
2023-01-19T20:37:05.680Z,61.81
2023-01-19T20:39:37.650Z,61.67
2023-01-19T20:42:12.523Z,61.39
2023-01-19T20:44:42.930Z,61.21
2023-01-19T20:47:13.240Z,61.07
2023-01-19T20:49:44.024Z,61.23
2023-01-19T20:52:14.793Z,61.11
2023-01-19T20:54:45.085Z,61.58
2023-01-19T20:57:15.364Z,61.40
2023-01-19T20:59:45.852Z,61.40
2023-01-19T21:02:17.776Z,61.23
2023-01-19T21:04:48.275Z,61.02
2023-01-19T21:07:18.617Z,61.26
2023-01-19T21:09:49.159Z,61.10
2023-01-19T21:12:21.340Z,61.29
2023-01-19T21:14:51.884Z,61.17
2023-01-19T21:17:22.117Z,61.43
2023-01-19T21:19:52.444Z,61.57
2023-01-19T21:22:23.784Z,61.33
2023-01-19T21:24:54.401Z,61.84
2023-01-19T21:27:24.647Z,61.89
2023-01-19T21:29:55.147Z,61.92
2023-01-19T21:32:29.454Z,62.16
2023-01-19T21:34:59.740Z,61.86
2023-01-19T21:37:32.006Z,62.16
2023-01-19T21:40:02.475Z,62.12
2023-01-19T21:42:33.021Z,62.22
2023-01-19T21:45:03.445Z,62.15
2023-01-19T21:47:38.859Z,62.09
2023-01-19T21:50:11.216Z,61.72
2023-01-19T21:52:42.021Z,61.74
2023-01-19T21:55:13.386Z,61.29
2023-01-19T21:57:43.997Z,61.29
2023-01-19T22:00:14.804Z,61.50
2023-01-19T22:02:58.603Z,60.92
2023-01-19T22:05:40.937Z,61.36
2023-01-19T22:08:11.522Z,61.19
2023-01-19T22:10:41.727Z,61.08
2023-01-19T22:13:12.335Z,61.09
2023-01-19T22:15:42.679Z,60.86
2023-01-19T22:18:17.568Z,60.70
2023-01-19T22:20:48.119Z,60.95
2023-01-19T22:23:21.661Z,60.91
2023-01-19T22:25:52.119Z,61.08
2023-01-19T22:28:23.139Z,61.16
2023-01-19T22:30:53.524Z,60.63
2023-01-19T22:33:23.773Z,61.26
2023-01-19T22:35:54.046Z,60.86
2023-01-19T22:38:24.701Z,61.35
2023-01-19T22:40:55.418Z,61.21
2023-01-19T22:43:25.663Z,61.84
2023-01-19T22:45:59.982Z,61.77
2023-01-19T22:48:32.860Z,61.88
2023-01-19T22:51:04.276Z,61.48
2023-01-19T22:53:34.681Z,61.86
2023-01-19T22:56:23.231Z,61.90
2023-01-19T22:58:54.242Z,62.05
2023-01-19T23:01:34.283Z,61.46
2023-01-19T23:04:08.805Z,61.72
2023-01-19T23:06:39.551Z,61.87
2023-01-19T23:09:13.404Z,61.52
2023-01-19T23:11:48.973Z,61.33
2023-01-19T23:14:21.816Z,61.58
2023-01-19T23:16:55.350Z,61.45
2023-01-19T23:19:25.886Z,61.37
2023-01-19T23:21:56.614Z,61.70
2023-01-19T23:24:26.951Z,61.53
2023-01-19T23:26:58.061Z,61.02
2023-01-19T23:29:28.397Z,61.47
2023-01-19T23:31:58.721Z,61.23
2023-01-19T23:34:29.537Z,61.03
2023-01-19T23:37:00.415Z,61.18
2023-01-19T23:39:33.700Z,60.99
2023-01-19T23:42:08.615Z,60.75
2023-01-19T23:44:39.372Z,60.85
2023-01-19T23:47:10.276Z,60.78
2023-01-19T23:49:41.211Z,60.97
2023-01-19T23:52:11.608Z,60.68
2023-01-19T23:54:42.613Z,60.89
2023-01-19T23:57:12.955Z,60.65
2023-01-19T23:59:52.275Z,60.58
